Time;durP1;ratioP1;P1;durP2;ratioP2;P2;SDS_P1;SDS_P2;PMS_P1;PMS_P2;Temp;Humidity;BMP_temperature;BMP_pressure;BME280_temperature;BME280_humidity;BME280_pressure;Samples;Min_cycle;Max_cycle;Signal;HPM_P1;HPM_P2
2022/07/23 00:02:20;;;;;;;3.60;1.90;;;25.40;99.90;;;;;;5006925;28;20210;-95
2022/07/23 00:04:52;;;;;;;4.00;1.80;;;25.20;99.90;;;;;;5004098;28;20217;-95
2022/07/23 00:12:50;;;;;;;2.57;2.07;;;24.80;99.90;;;;;;5479550;23;20257;-94
2022/07/23 00:15:25;;;;;;;5.37;1.90;;;25.10;99.90;;;;;;5001802;28;20273;-93
2022/07/23 00:17:57;;;;;;;4.43;1.90;;;25.20;99.90;;;;;;5000888;28;20217;-92
2022/07/23 00:20:32;;;;;;;2.20;1.63;;;25.00;99.90;;;;;;5002010;28;20214;-94
2022/07/23 00:23:06;;;;;;;2.70;1.70;;;25.00;99.90;;;;;;5006142;28;20246;-94
2022/07/23 00:25:38;;;;;;;2.10;1.50;;;24.70;99.90;;;;;;5003198;28;20214;-93
2022/07/23 00:28:11;;;;;;;4.43;2.07;;;25.00;99.90;;;;;;5004625;28;20218;-94
2022/07/23 00:30:50;;;;;;;1.93;1.73;;;24.70;99.90;;;;;;5013369;28;20202;-93
2022/07/23 00:33:26;;;;;;;2.60;1.60;;;24.80;99.90;;;;;;5017101;28;20201;-94
2022/07/23 00:35:59;;;;;;;2.23;1.67;;;24.90;99.90;;;;;;5016061;28;20213;-94
2022/07/23 00:38:31;;;;;;;3.00;1.70;;;24.90;99.90;;;;;;5063595;23;20252;-93
2022/07/23 00:41:03;;;;;;;2.43;1.53;;;24.80;99.90;;;;;;5036631;28;20197;-93
2022/07/23 00:43:35;;;;;;;2.73;1.40;;;25.10;99.90;;;;;;5036822;28;20208;-93
2022/07/23 00:46:08;;;;;;;3.50;1.77;;;25.20;99.90;;;;;;5036586;28;20197;-93
2022/07/23 00:48:39;;;;;;;2.00;1.70;;;25.30;99.90;;;;;;5031895;28;20213;-93
2022/07/23 00:51:11;;;;;;;2.30;1.50;;;25.00;99.90;;;;;;5026567;28;20221;-93
2022/07/23 00:53:43;;;;;;;6.47;1.77;;;25.20;99.90;;;;;;5023782;28;20673;-94
2022/07/23 00:56:23;;;;;;;3.23;1.70;;;25.10;99.90;;;;;;5022447;28;20682;-94
2022/07/23 00:58:54;;;;;;;2.43;1.90;;;24.90;99.90;;;;;;5024164;28;20257;-94
2022/07/23 01:01:27;;;;;;;1.97;1.67;;;25.10;99.90;;;;;;5026740;28;20264;-94
2022/07/23 01:03:59;;;;;;;3.37;1.70;;;25.40;99.90;;;;;;5020939;28;20269;-95
2022/07/23 01:06:30;;;;;;;2.37;1.53;;;25.50;99.90;;;;;;5023497;28;20300;-94
2022/07/23 01:09:02;;;;;;;3.87;1.87;;;25.90;99.90;;;;;;5027108;28;20263;-93
2022/07/23 01:11:34;;;;;;;2.53;1.53;;;26.00;99.90;;;;;;5025379;28;20229;-94
2022/07/23 01:14:14;;;;;;;2.00;1.70;;;26.40;99.90;;;;;;5032030;28;20200;-93
2022/07/23 01:16:51;;;;;;;4.03;1.70;;;26.40;99.90;;;;;;5025370;28;20213;-93
2022/07/23 01:19:25;;;;;;;2.30;1.63;;;27.40;99.90;;;;;;5023531;28;20575;-93
2022/07/23 01:22:00;;;;;;;6.57;2.37;;;27.90;99.90;;;;;;5022751;28;20214;-94
2022/07/23 01:24:33;;;;;;;3.37;1.90;;;28.10;99.90;;;;;;5022422;28;20213;-95
2022/07/23 01:27:05;;;;;;;2.53;1.70;;;28.40;99.90;;;;;;5025713;28;20276;-94
2022/07/23 01:29:36;;;;;;;4.17;2.00;;;28.10;99.90;;;;;;5022945;28;20214;-94
2022/07/23 01:32:08;;;;;;;3.83;1.90;;;27.70;99.90;;;;;;5025246;28;20275;-93
2022/07/23 01:34:42;;;;;;;3.57;1.90;;;27.50;99.90;;;;;;5210629;23;20246;-94
2022/07/23 01:37:33;;;;;;;3.57;1.90;;;28.00;99.90;;;;;;5037645;28;20206;-94
2022/07/23 01:40:14;;;;;;;4.87;1.90;;;28.10;99.90;;;;;;5034636;28;20241;-95
2022/07/23 01:42:50;;;;;;;3.20;1.90;;;27.80;99.90;;;;;;5035433;28;20216;-94
2022/07/23 01:45:22;;;;;;;3.67;1.93;;;28.00;99.90;;;;;;5036040;28;20209;-94
2022/07/23 01:47:56;;;;;;;3.03;2.00;;;28.20;99.90;;;;;;5038966;28;20236;-92
2022/07/23 01:50:28;;;;;;;5.37;2.27;;;28.70;99.90;;;;;;5207404;23;20248;-94
2022/07/23 01:53:05;;;;;;;4.30;1.90;;;28.90;99.90;;;;;;5039360;28;20178;-93
2022/07/23 01:55:55;;;;;;;4.60;2.47;;;28.70;99.90;;;;;;5034615;28;20275;-93
2022/07/23 01:58:40;;;;;;;3.57;2.10;;;28.60;99.90;;;;;;5033636;28;20240;-94
2022/07/23 02:03:49;;;;;;;3.40;2.40;;;27.50;99.90;;;;;;4993128;28;20234;-95
2022/07/23 02:06:25;;;;;;;5.43;2.20;;;27.90;99.90;;;;;;4994733;28;20218;-96
2022/07/23 02:08:57;;;;;;;2.90;1.90;;;27.60;99.90;;;;;;4992597;28;20237;-95
2022/07/23 02:11:34;;;;;;;2.50;2.20;;;27.70;99.90;;;;;;4992533;28;20230;-95
2022/07/23 02:14:08;;;;;;;4.17;2.23;;;27.20;99.90;;;;;;4994950;28;20216;-95
2022/07/23 02:16:41;;;;;;;3.37;2.10;;;26.10;99.90;;;;;;4994590;28;20210;-96
2022/07/23 02:22:01;;;;;;;3.60;2.03;;;25.30;99.90;;;;;;5247028;23;20238;-96
2022/07/23 02:24:33;;;;;;;3.63;2.70;;;24.80;99.90;;;;;;5005843;28;20206;-96
2022/07/23 02:27:09;;;;;;;2.83;2.30;;;24.20;99.90;;;;;;5006467;28;20214;-96
2022/07/23 02:29:48;;;;;;;2.90;2.30;;;24.00;99.90;;;;;;5011415;28;20212;-96
2022/07/23 02:32:29;;;;;;;5.20;2.20;;;23.80;99.90;;;;;;5011865;28;20230;-96
2022/07/23 02:35:00;;;;;;;3.47;2.30;;;23.70;99.90;;;;;;5012206;28;20245;-96
2022/07/23 02:43:23;;;;;;;3.67;2.20;;;23.20;99.90;;;;;;5011892;28;20214;-95
2022/07/23 02:45:56;;;;;;;3.47;2.37;;;23.10;99.90;;;;;;5007884;28;20218;-95
2022/07/23 02:48:27;;;;;;;5.50;2.40;;;22.90;99.90;;;;;;5006410;28;20210;-94
2022/07/23 02:50:59;;;;;;;2.73;2.37;;;22.80;99.90;;;;;;4999006;28;20214;-95
2022/07/23 02:53:31;;;;;;;2.40;2.10;;;22.70;99.90;;;;;;5000611;28;20207;-95
2022/07/23 02:56:02;;;;;;;4.00;2.40;;;22.50;99.90;;;;;;5001393;28;20288;-95
2022/07/23 02:58:36;;;;;;;3.27;2.27;;;22.40;99.90;;;;;;5001087;28;20210;-95
2022/07/23 03:01:08;;;;;;;3.67;2.40;;;22.30;99.90;;;;;;4998625;28;20698;-95
2022/07/23 03:06:44;;;;;;;3.43;2.20;;;22.10;99.90;;;;;;5010179;28;20202;-96
2022/07/23 03:09:25;;;;;;;2.50;2.00;;;22.10;99.90;;;;;;5013514;28;20233;-95
2022/07/23 03:12:04;;;;;;;3.67;2.23;;;22.00;99.90;;;;;;5017595;28;20198;-96
2022/07/23 03:14:47;;;;;;;4.17;2.13;;;21.90;99.90;;;;;;5019235;28;20225;-96
2022/07/23 03:17:19;;;;;;;4.17;2.20;;;21.80;99.90;;;;;;5019224;28;20197;-96
2022/07/23 03:19:52;;;;;;;2.73;2.37;;;21.70;99.90;;;;;;5016615;28;20233;-94
2022/07/23 03:22:33;;;;;;;5.93;2.87;;;21.60;99.90;;;;;;5003031;28;20237;-96
2022/07/23 03:25:08;;;;;;;4.23;2.23;;;21.50;99.90;;;;;;5007867;28;20636;-96
2022/07/23 03:28:00;;;;;;;2.87;2.20;;;21.50;99.90;;;;;;5005273;28;20213;-95
2022/07/23 03:30:34;;;;;;;3.47;2.10;;;21.40;99.90;;;;;;5004797;28;20222;-96
2022/07/23 03:33:06;;;;;;;3.73;2.60;;;21.30;99.90;;;;;;4999334;28;20214;-96
2022/07/23 03:35:37;;;;;;;3.57;2.13;;;21.20;99.90;;;;;;5001093;28;20679;-96
2022/07/23 03:41:10;;;;;;;4.50;2.47;;;21.00;99.90;;;;;;5314732;23;20634;-96
2022/07/23 03:43:45;;;;;;;3.07;2.20;;;20.90;99.90;;;;;;5031530;28;20564;-96
2022/07/23 03:46:21;;;;;;;5.27;2.60;;;20.70;99.90;;;;;;5029787;28;20213;-95
2022/07/23 03:48:56;;;;;;;3.77;2.20;;;20.70;99.90;;;;;;5031898;28;20761;-96
2022/07/23 03:51:44;;;;;;;3.77;2.67;;;20.60;99.90;;;;;;5057454;23;20231;-95
2022/07/23 04:00:13;;;;;;;3.27;2.60;;;20.40;99.90;;;;;;5482037;23;20249;-95
2022/07/23 04:03:14;;;;;;;5.63;2.87;;;20.30;99.90;;;;;;5014393;28;20237;-96
2022/07/23 04:05:49;;;;;;;4.17;3.33;;;20.20;99.90;;;;;;5011814;28;20217;-96
2022/07/23 04:08:22;;;;;;;6.37;2.93;;;20.20;99.90;;;;;;5010169;28;20260;-96
2022/07/23 04:10:58;;;;;;;5.63;3.03;;;20.20;99.90;;;;;;5010168;28;20630;-95
2022/07/23 04:13:32;;;;;;;7.83;4.23;;;20.10;99.90;;;;;;5012477;28;20205;-94
2022/07/23 04:16:08;;;;;;;7.30;3.80;;;20.00;99.90;;;;;;5010598;28;20210;-95
2022/07/23 04:19:01;;;;;;;7.03;3.80;;;19.90;99.90;;;;;;5009553;28;20248;-95
2022/07/23 04:24:37;;;;;;;7.10;4.30;;;19.70;99.90;;;;;;5012418;28;20231;-95
2022/07/23 04:30:18;;;;;;;7.03;4.53;;;19.70;99.90;;;;;;5010593;28;20210;-95
2022/07/23 04:35:48;;;;;;;5.23;4.00;;;19.40;99.90;;;;;;5008762;28;20213;-94
2022/07/23 04:38:47;;;;;;;6.27;4.47;;;19.40;99.90;;;;;;5012239;28;20229;-95
2022/07/23 04:41:24;;;;;;;9.53;4.10;;;19.30;99.90;;;;;;5001151;28;20242;-94
2022/07/23 04:44:01;;;;;;;5.63;3.40;;;19.20;99.90;;;;;;5001851;28;20206;-94
2022/07/23 04:49:33;;;;;;;4.93;3.90;;;19.10;99.90;;;;;;5009055;28;20697;-95
2022/07/23 04:52:17;;;;;;;6.43;4.13;;;18.90;99.90;;;;;;5003150;28;20210;-96
2022/07/23 04:54:52;;;;;;;6.13;4.10;;;18.90;99.90;;;;;;5003465;28;20269;-95
2022/07/23 04:57:24;;;;;;;6.50;3.97;;;18.70;99.90;;;;;;5005814;28;20210;-93
2022/07/23 04:59:56;;;;;;;6.17;3.73;;;18.70;99.90;;;;;;5003134;28;20254;-93
2022/07/23 05:02:28;;;;;;;5.93;3.80;;;18.60;99.90;;;;;;4998800;28;20217;-92
2022/07/23 05:04:59;;;;;;;4.77;3.43;;;18.50;99.90;;;;;;5002445;28;20632;-95
2022/07/23 05:07:31;;;;;;;5.40;3.40;;;18.50;99.90;;;;;;4998483;28;20316;-93
2022/07/23 05:10:06;;;;;;;5.00;3.40;;;18.40;99.90;;;;;;5001527;28;20202;-95
2022/07/23 05:12:37;;;;;;;4.57;3.30;;;18.30;99.90;;;;;;5006478;28;20208;-94
2022/07/23 05:15:11;;;;;;;5.87;2.83;;;18.20;99.90;;;;;;5000102;28;20296;-94
2022/07/23 05:17:44;;;;;;;6.60;2.70;;;18.20;99.90;;;;;;4999885;28;20268;-94
2022/07/23 05:20:15;;;;;;;5.10;2.87;;;18.10;99.90;;;;;;4997212;28;20214;-95
2022/07/23 05:22:46;;;;;;;7.40;3.40;;;18.10;99.90;;;;;;5000376;28;20298;-95
2022/07/23 05:25:20;;;;;;;4.97;3.00;;;18.00;99.90;;;;;;4998032;28;20210;-95
2022/07/23 05:27:52;;;;;;;6.17;3.10;;;17.90;99.90;;;;;;4998388;28;20218;-94
2022/07/23 05:30:24;;;;;;;6.00;3.33;;;17.80;99.90;;;;;;4997234;28;20210;-94
2022/07/23 05:32:55;;;;;;;4.50;2.80;;;17.70;99.90;;;;;;4997332;28;20215;-95
2022/07/23 05:35:27;;;;;;;8.63;3.13;;;17.60;99.90;;;;;;4997537;28;20269;-94
2022/07/23 05:37:58;;;;;;;6.67;3.10;;;17.50;99.90;;;;;;4998035;28;20215;-94
2022/07/23 05:40:32;;;;;;;5.53;2.73;;;17.40;99.90;;;;;;4996566;28;20936;-94
2022/07/23 05:43:04;;;;;;;4.00;2.53;;;17.40;99.90;;;;;;4997250;28;20663;-94
2022/07/23 05:45:35;;;;;;;4.93;3.00;;;17.30;99.90;;;;;;4998211;28;20202;-95
2022/07/23 05:48:07;;;;;;;5.10;2.63;;;17.20;99.90;;;;;;4998637;28;20218;-94
2022/07/23 05:50:38;;;;;;;5.57;2.67;;;17.20;99.90;;;;;;4997903;28;20671;-94
2022/07/23 05:56:12;;;;;;;2.87;2.33;;;16.90;99.90;;;;;;5005754;28;20594;-94
2022/07/23 05:58:58;;;;;;;5.17;2.40;;;16.90;99.90;;;;;;5011214;28;20218;-94
2022/07/23 06:01:29;;;;;;;7.07;2.73;;;16.80;99.90;;;;;;5007311;28;20238;-94
2022/07/23 06:04:05;;;;;;;6.47;2.60;;;16.70;99.90;;;;;;5003835;28;20215;-94
2022/07/23 06:06:44;;;;;;;5.70;2.13;;;16.50;99.90;;;;;;5004302;28;20659;-94
2022/07/23 06:09:17;;;;;;;5.57;2.50;;;16.50;99.90;;;;;;5000349;28;20225;-94
2022/07/23 06:11:54;;;;;;;4.70;2.30;;;16.40;99.90;;;;;;5002751;28;20214;-94
2022/07/23 06:14:27;;;;;;;4.70;2.30;;;16.30;99.90;;;;;;5002101;28;20210;-94
2022/07/23 06:19:44;;;;;;;6.23;2.10;;;16.20;99.90;;;;;;5001391;28;20209;-94
2022/07/23 06:22:20;;;;;;;4.43;2.23;;;16.20;99.90;;;;;;5000575;28;20226;-94
2022/07/23 06:24:53;;;;;;;7.67;2.40;;;16.00;99.90;;;;;;5001471;28;20216;-94
2022/07/23 06:30:18;;;;;;;7.00;2.33;;;15.90;99.90;;;;;;5000674;28;20220;-94
2022/07/23 06:32:51;;;;;;;4.60;2.23;;;15.80;99.90;;;;;;5002899;28;20602;-94
2022/07/23 06:35:33;;;;;;;6.67;2.40;;;15.80;99.90;;;;;;5004094;28;20241;-94
2022/07/23 06:38:05;;;;;;;5.87;2.20;;;15.60;99.90;;;;;;5003572;28;20252;-94
2022/07/23 06:43:37;;;;;;;5.90;2.27;;;15.50;99.90;;;;;;5019596;28;20241;-94
2022/07/23 06:46:09;;;;;;;7.60;2.10;;;15.50;99.90;;;;;;5018518;28;20218;-95
2022/07/23 06:48:41;;;;;;;5.33;1.97;;;15.50;99.90;;;;;;5019006;28;20198;-94
2022/07/23 06:51:12;;;;;;;7.87;2.53;;;15.40;99.90;;;;;;5017318;28;20209;-94
2022/07/23 06:53:46;;;;;;;5.93;2.13;;;15.40;99.90;;;;;;5017617;28;20210;-94
2022/07/23 06:56:20;;;;;;;5.53;2.20;;;15.30;99.90;;;;;;5017831;28;20209;-94
2022/07/23 06:58:54;;;;;;;4.70;2.00;;;15.30;99.90;;;;;;5018734;28;20206;-94
2022/07/23 07:01:27;;;;;;;6.73;2.07;;;15.20;99.90;;;;;;5018125;28;20260;-95
2022/07/23 07:04:00;;;;;;;4.10;1.87;;;15.20;99.90;;;;;;5019236;28;20194;-93
2022/07/23 07:06:31;;;;;;;5.80;1.97;;;15.20;99.90;;;;;;5018053;28;20210;-94
2022/07/23 07:17:39;;;;;;;6.33;1.80;;;15.00;99.90;;;;;;5012398;28;20210;-94
2022/07/23 07:20:12;;;;;;;3.17;1.67;;;15.00;99.90;;;;;;4999160;28;20230;-96
2022/07/23 07:22:45;;;;;;;6.77;1.80;;;15.00;99.90;;;;;;4999573;28;20245;-94
2022/07/23 07:25:16;;;;;;;6.00;2.10;;;15.00;99.90;;;;;;5000016;28;20214;-94
2022/07/23 07:27:48;;;;;;;4.60;1.93;;;14.90;99.90;;;;;;4999213;28;20293;-94
2022/07/23 07:30:23;;;;;;;8.40;2.47;;;14.90;99.90;;;;;;4998265;28;20207;-94
2022/07/23 07:33:02;;;;;;;6.40;2.10;;;14.80;99.90;;;;;;4998953;28;20214;-93
2022/07/23 07:35:33;;;;;;;5.17;2.00;;;14.80;99.90;;;;;;5005071;28;20584;-94
2022/07/23 07:38:05;;;;;;;4.73;1.90;;;14.80;99.90;;;;;;5001649;28;20226;-94
2022/07/23 07:40:39;;;;;;;6.73;2.20;;;14.80;99.90;;;;;;4997802;28;20225;-93
2022/07/23 07:43:12;;;;;;;6.50;2.03;;;14.80;99.90;;;;;;4997107;28;20703;-94
2022/07/23 07:45:46;;;;;;;7.80;2.30;;;14.70;99.90;;;;;;4998167;28;20611;-94
2022/07/23 07:48:18;;;;;;;8.13;2.10;;;14.70;99.90;;;;;;5000359;28;20198;-94
2022/07/23 07:50:51;;;;;;;4.03;2.30;;;14.70;99.90;;;;;;4999039;28;20218;-94
2022/07/23 07:53:24;;;;;;;6.00;2.03;;;14.70;99.90;;;;;;4997909;28;20221;-95
2022/07/23 07:55:56;;;;;;;7.37;2.10;;;14.60;99.90;;;;;;4999164;28;20218;-94
2022/07/23 07:58:29;;;;;;;4.57;2.20;;;14.50;99.90;;;;;;4997988;28;20651;-94
2022/07/23 08:01:04;;;;;;;6.20;2.53;;;14.60;99.90;;;;;;4999849;28;20206;-94
2022/07/23 08:03:36;;;;;;;6.97;2.00;;;14.50;99.90;;;;;;5002892;28;20265;-94
2022/07/23 08:06:09;;;;;;;7.17;2.37;;;14.60;99.90;;;;;;5002704;28;20210;-94
2022/07/23 08:08:54;;;;;;;5.23;1.93;;;14.60;99.90;;;;;;5002619;28;20202;-93
2022/07/23 08:11:27;;;;;;;5.20;2.30;;;14.60;99.90;;;;;;5000387;28;20296;-94
2022/07/23 08:14:09;;;;;;;8.13;2.33;;;14.60;99.90;;;;;;5000426;28;20214;-94
2022/07/23 08:19:45;;;;;;;7.43;2.20;;;14.60;99.90;;;;;;5015588;28;20213;-94
2022/07/23 08:22:17;;;;;;;8.97;2.80;;;14.60;99.90;;;;;;5016687;28;20232;-94
2022/07/23 08:24:50;;;;;;;6.67;2.17;;;14.60;99.90;;;;;;5016886;28;20194;-94
2022/07/23 08:27:23;;;;;;;5.17;2.00;;;14.70;99.90;;;;;;5017581;28;20269;-94
2022/07/23 08:29:56;;;;;;;4.07;1.80;;;14.70;99.90;;;;;;5009267;28;20293;-94
2022/07/23 08:32:29;;;;;;;6.53;2.00;;;14.80;99.90;;;;;;5000617;28;20221;-94
2022/07/23 08:35:15;;;;;;;4.97;1.83;;;14.80;99.90;;;;;;5002000;28;20604;-95
2022/07/23 08:37:47;;;;;;;4.40;1.90;;;14.70;99.90;;;;;;5010080;28;20234;-94
2022/07/23 08:40:21;;;;;;;8.67;2.30;;;14.70;99.90;;;;;;5004929;28;20210;-94
2022/07/23 08:42:55;;;;;;;10.90;2.50;;;14.70;99.90;;;;;;5004529;28;20671;-93
2022/07/23 08:45:28;;;;;;;6.07;2.07;;;14.70;99.90;;;;;;5042378;23;20263;-94
2022/07/23 08:48:02;;;;;;;6.23;1.90;;;14.70;99.90;;;;;;5023297;28;20214;-96
2022/07/23 08:50:38;;;;;;;5.70;1.70;;;14.70;99.90;;;;;;5018453;28;20673;-94
2022/07/23 08:53:12;;;;;;;3.07;1.77;;;14.80;99.90;;;;;;5022997;28;20209;-96
2022/07/23 08:55:46;;;;;;;6.10;1.93;;;14.80;99.90;;;;;;5017649;28;20296;-94
2022/07/23 08:58:19;;;;;;;7.20;2.00;;;14.80;99.90;;;;;;5016978;28;20213;-94
2022/07/23 09:00:58;;;;;;;6.63;2.00;;;14.80;99.90;;;;;;5016900;28;20220;-93
2022/07/23 09:03:33;;;;;;;8.77;2.33;;;14.80;99.90;;;;;;5017174;28;20241;-92
2022/07/23 09:06:05;;;;;;;6.77;2.13;;;14.90;99.90;;;;;;5017786;28;20248;-93
2022/07/23 09:08:39;;;;;;;6.57;2.07;;;14.80;99.90;;;;;;5016877;28;20233;-93
2022/07/23 09:11:12;;;;;;;5.23;1.90;;;14.90;99.90;;;;;;5017501;28;20237;-93
2022/07/23 09:13:50;;;;;;;8.23;2.50;;;14.90;99.90;;;;;;5019064;28;20259;-93
2022/07/23 09:16:28;;;;;;;6.87;1.87;;;14.90;99.90;;;;;;5018123;28;20651;-92
2022/07/23 09:19:04;;;;;;;6.70;2.00;;;14.80;99.90;;;;;;5017108;28;20236;-93
2022/07/23 09:21:37;;;;;;;4.50;1.90;;;14.80;99.90;;;;;;5019348;28;20209;-92
2022/07/23 09:24:09;;;;;;;4.87;1.70;;;14.80;99.90;;;;;;5019377;28;20269;-93
2022/07/23 09:26:43;;;;;;;8.07;2.00;;;14.80;99.90;;;;;;5020124;28;20209;-93
2022/07/23 09:29:18;;;;;;;5.67;1.80;;;14.80;99.90;;;;;;5020039;28;20240;-92
2022/07/23 09:31:52;;;;;;;4.70;1.70;;;14.80;99.90;;;;;;5021369;28;20677;-92
2022/07/23 09:34:27;;;;;;;7.00;2.27;;;14.80;99.90;;;;;;5024922;28;20367;-93
2022/07/23 09:37:01;;;;;;;9.20;1.80;;;14.70;99.90;;;;;;5022860;28;20263;-94
2022/07/23 09:39:34;;;;;;;4.23;1.53;;;14.70;99.90;;;;;;5020823;28;20220;-93
2022/07/23 09:42:17;;;;;;;5.00;2.00;;;14.70;99.90;;;;;;5019834;28;20638;-94
2022/07/23 09:44:49;;;;;;;4.20;1.90;;;14.70;99.90;;;;;;5020156;28;20244;-94
2022/07/23 09:47:21;;;;;;;4.93;2.07;;;14.70;99.90;;;;;;5007757;28;20214;-95
2022/07/23 09:50:04;;;;;;;5.43;1.97;;;14.70;99.90;;;;;;5004311;28;20214;-94
2022/07/23 09:52:36;;;;;;;8.30;1.90;;;14.70;99.90;;;;;;5000741;28;20261;-93
2022/07/23 09:55:08;;;;;;;7.27;2.13;;;14.70;99.90;;;;;;5000930;28;20269;-94
2022/07/23 09:57:42;;;;;;;5.23;1.67;;;14.80;99.90;;;;;;5004216;28;20230;-94
2022/07/23 10:00:14;;;;;;;5.80;2.10;;;14.80;99.90;;;;;;4999965;28;20236;-94
2022/07/23 10:02:49;;;;;;;7.20;1.90;;;14.80;99.90;;;;;;5000148;28;20241;-95
2022/07/23 10:05:25;;;;;;;8.37;1.50;;;14.70;99.90;;;;;;5002782;28;20215;-94
2022/07/23 10:07:57;;;;;;;6.87;1.77;;;14.70;99.90;;;;;;5000020;28;20229;-95
2022/07/23 10:10:30;;;;;;;6.53;1.97;;;14.70;99.90;;;;;;4999830;28;20218;-95
2022/07/23 10:15:54;;;;;;;7.47;1.73;;;14.70;99.90;;;;;;4996869;28;20210;-94
2022/07/23 10:18:26;;;;;;;5.33;1.70;;;14.60;99.90;;;;;;5002303;28;20218;-95
2022/07/23 10:20:59;;;;;;;5.67;2.10;;;14.60;99.90;;;;;;4999782;28;20202;-94
2022/07/23 10:23:37;;;;;;;5.23;1.60;;;14.60;99.90;;;;;;5000285;28;20229;-94
2022/07/23 10:26:13;;;;;;;6.63;1.87;;;14.60;99.90;;;;;;5000817;28;20230;-95
2022/07/23 10:29:08;;;;;;;4.20;1.67;;;14.60;99.90;;;;;;5000428;28;20218;-95
2022/07/23 10:31:52;;;;;;;2.13;1.40;;;14.60;99.90;;;;;;5003279;28;20704;-94
2022/07/23 10:34:41;;;;;;;8.63;2.07;;;14.60;99.90;;;;;;5000219;28;20213;-95
2022/07/23 10:37:27;;;;;;;6.57;1.70;;;14.50;99.90;;;;;;4999531;28;20214;-95
2022/07/23 10:40:17;;;;;;;9.40;2.03;;;14.50;99.90;;;;;;5000516;28;20627;-94
2022/07/23 10:42:49;;;;;;;6.90;1.70;;;14.50;99.90;;;;;;4999657;28;20243;-94
2022/07/23 10:45:30;;;;;;;4.83;1.40;;;14.50;99.90;;;;;;5000131;28;20218;-94
2022/07/23 10:48:17;;;;;;;5.83;1.67;;;14.50;99.90;;;;;;5016534;28;20292;-95
2022/07/23 10:51:10;;;;;;;8.17;2.00;;;14.50;99.90;;;;;;5018591;28;20268;-95
2022/07/23 10:54:00;;;;;;;7.77;2.00;;;14.50;99.90;;;;;;5019340;28;20332;-95
2022/07/23 10:57:08;;;;;;;4.27;1.43;;;14.50;99.90;;;;;;5018886;28;20202;-95
2022/07/23 11:00:17;;;;;;;5.00;1.70;;;14.50;99.90;;;;;;5017807;28;20202;-94
2022/07/23 11:02:50;;;;;;;5.13;1.63;;;14.50;99.90;;;;;;5018491;28;20210;-94
2022/07/23 11:05:22;;;;;;;5.20;1.53;;;14.50;99.90;;;;;;5018302;28;20664;-95
2022/07/23 11:08:20;;;;;;;5.37;1.53;;;14.50;99.90;;;;;;5018816;28;20217;-94
2022/07/23 11:10:56;;;;;;;5.13;1.20;;;14.50;99.90;;;;;;5017284;28;20584;-95
2022/07/23 11:13:33;;;;;;;5.80;1.67;;;14.50;99.90;;;;;;5019012;28;20243;-94
2022/07/23 11:16:19;;;;;;;7.63;1.70;;;14.50;99.90;;;;;;5025233;28;20244;-95
2022/07/23 11:19:18;;;;;;;6.53;2.00;;;14.40;99.90;;;;;;5022793;28;20248;-94
2022/07/23 11:21:52;;;;;;;5.77;2.10;;;14.50;99.90;;;;;;5018503;28;20205;-95
2022/07/23 11:24:26;;;;;;;6.60;1.70;;;14.50;99.90;;;;;;5018256;28;20264;-94
2022/07/23 11:27:02;;;;;;;3.77;1.43;;;14.50;99.90;;;;;;5018816;28;20225;-94
2022/07/23 11:29:52;;;;;;;5.27;1.83;;;14.50;99.90;;;;;;5018679;28;20210;-94
2022/07/23 11:32:38;;;;;;;3.40;1.23;;;14.50;99.90;;;;;;5017804;28;20600;-94
2022/07/23 11:35:25;;;;;;;4.00;1.93;;;14.50;99.90;;;;;;5018147;28;20212;-95
2022/07/23 11:38:07;;;;;;;5.00;1.60;;;14.50;99.90;;;;;;5018204;28;20620;-94
2022/07/23 11:40:44;;;;;;;6.07;1.60;;;14.40;99.90;;;;;;5017586;28;20233;-95
2022/07/23 11:43:18;;;;;;;6.50;1.70;;;14.40;99.90;;;;;;5019321;28;20626;-94
2022/07/23 11:45:52;;;;;;;3.80;1.50;;;14.30;99.90;;;;;;5018260;28;20724;-94
2022/07/23 11:48:25;;;;;;;5.23;1.57;;;14.40;99.90;;;;;;5018109;28;20263;-95
2022/07/23 11:50:58;;;;;;;2.73;1.30;;;14.40;99.90;;;;;;5016985;28;20209;-95
2022/07/23 11:53:34;;;;;;;6.17;1.77;;;14.40;99.90;;;;;;5020510;28;20240;-95
2022/07/23 11:56:07;;;;;;;3.80;1.70;;;14.50;99.90;;;;;;5018542;28;20213;-95
2022/07/23 11:58:57;;;;;;;5.73;1.60;;;14.50;99.90;;;;;;5018539;28;20214;-95
2022/07/23 12:01:30;;;;;;;5.47;1.63;;;14.40;99.90;;;;;;5017338;28;20214;-95
2022/07/23 12:04:03;;;;;;;2.57;1.10;;;14.40;99.90;;;;;;5018479;28;20237;-94
2022/07/23 12:06:40;;;;;;;6.10;1.63;;;14.40;99.90;;;;;;5018717;28;20221;-94
2022/07/23 12:09:14;;;;;;;5.07;1.40;;;14.40;99.90;;;;;;5018317;28;20294;-95
2022/07/23 12:12:03;;;;;;;5.97;1.60;;;14.40;99.90;;;;;;5017720;28;20271;-95
2022/07/23 12:14:48;;;;;;;5.43;1.60;;;14.40;99.90;;;;;;5018592;28;20623;-94
2022/07/23 12:17:21;;;;;;;6.63;1.50;;;14.40;99.90;;;;;;5018350;28;20272;-95
2022/07/23 12:19:53;;;;;;;7.27;1.70;;;14.40;99.90;;;;;;5019017;28;20217;-94
2022/07/23 12:22:26;;;;;;;3.90;1.40;;;14.40;99.90;;;;;;5019056;28;20233;-94
2022/07/23 12:25:02;;;;;;;4.00;1.27;;;14.30;99.90;;;;;;5024020;28;20248;-95
2022/07/23 12:27:34;;;;;;;5.67;1.60;;;14.30;99.90;;;;;;5036473;28;20276;-95
2022/07/23 12:30:24;;;;;;;4.00;1.43;;;14.20;99.90;;;;;;5035977;28;20236;-95
2022/07/23 12:33:03;;;;;;;4.20;1.50;;;14.10;99.90;;;;;;5028893;28;20221;-93
2022/07/23 12:35:40;;;;;;;5.97;1.30;;;14.20;99.90;;;;;;5020014;28;20583;-93
2022/07/23 12:38:14;;;;;;;6.20;2.07;;;14.20;99.90;;;;;;5020586;28;20224;-94
2022/07/23 12:40:47;;;;;;;7.00;1.30;;;14.10;99.90;;;;;;5018365;28;20206;-93
2022/07/23 12:43:24;;;;;;;6.00;1.30;;;14.10;99.90;;;;;;5017848;28;20248;-94
2022/07/23 12:46:04;;;;;;;6.50;1.30;;;14.10;99.90;;;;;;5016943;28;20286;-93
2022/07/23 12:48:37;;;;;;;5.43;1.33;;;14.20;99.90;;;;;;5017302;28;20259;-93
2022/07/23 12:51:10;;;;;;;3.67;1.40;;;14.30;99.90;;;;;;5017089;28;20247;-94
2022/07/23 12:53:53;;;;;;;5.43;1.10;;;14.30;99.90;;;;;;5016830;28;20646;-94
2022/07/23 12:56:30;;;;;;;5.87;1.47;;;14.30;99.90;;;;;;5018551;28;20235;-93
2022/07/23 12:59:10;;;;;;;5.80;1.40;;;14.30;99.90;;;;;;5020682;28;20620;-94
2022/07/23 13:01:48;;;;;;;4.63;1.50;;;14.40;99.90;;;;;;5017614;28;20308;-94
2022/07/23 13:04:22;;;;;;;4.37;1.40;;;14.30;99.90;;;;;;5021249;28;20232;-94
2022/07/23 13:06:55;;;;;;;4.07;1.47;;;14.30;99.90;;;;;;5024184;28;20233;-92
2022/07/23 13:09:30;;;;;;;3.57;1.00;;;14.30;99.90;;;;;;5024351;28;20221;-93
2022/07/23 13:12:08;;;;;;;4.97;1.23;;;14.30;99.90;;;;;;5020866;28;20236;-93
2022/07/23 13:14:41;;;;;;;3.87;1.13;;;14.30;99.90;;;;;;5021334;28;20212;-93
2022/07/23 13:17:18;;;;;;;4.83;1.40;;;14.30;99.90;;;;;;5022919;28;20228;-94
2022/07/23 13:19:49;;;;;;;7.03;1.40;;;14.30;99.90;;;;;;5026600;28;20685;-94
2022/07/23 13:22:21;;;;;;;11.23;1.87;;;14.40;99.90;;;;;;5023046;28;20243;-94
2022/07/23 13:24:52;;;;;;;4.77;1.27;;;14.40;99.90;;;;;;5023883;28;20221;-93
2022/07/23 13:27:24;;;;;;;4.47;1.10;;;14.40;99.90;;;;;;5024858;28;20236;-93
2022/07/23 13:29:56;;;;;;;3.80;1.20;;;14.40;99.90;;;;;;5022396;28;20206;-93
2022/07/23 13:32:31;;;;;;;4.90;1.20;;;14.40;99.90;;;;;;5024626;28;20232;-93
2022/07/23 13:35:02;;;;;;;5.43;1.30;;;14.40;99.90;;;;;;5020968;28;20216;-93
2022/07/23 13:37:33;;;;;;;4.13;1.63;;;14.40;99.90;;;;;;5023276;28;20662;-94
2022/07/23 13:40:05;;;;;;;3.93;1.67;;;14.50;99.90;;;;;;5023473;28;20210;-94
2022/07/23 13:42:47;;;;;;;2.60;1.20;;;14.50;99.90;;;;;;5020209;28;20213;-95
2022/07/23 13:45:18;;;;;;;2.97;1.40;;;14.60;99.90;;;;;;5021236;28;20301;-94
2022/07/23 13:47:52;;;;;;;5.10;1.40;;;14.50;99.90;;;;;;5022698;28;20209;-93
2022/07/23 13:50:23;;;;;;;3.67;1.17;;;14.50;99.90;;;;;;5020701;28;20212;-94
2022/07/23 13:53:04;;;;;;;5.10;1.40;;;14.50;99.90;;;;;;5026103;28;20217;-93
2022/07/23 13:55:37;;;;;;;3.60;1.10;;;14.60;99.90;;;;;;5039561;28;20219;-94
2022/07/23 13:58:10;;;;;;;3.90;1.27;;;14.60;99.90;;;;;;5039575;28;20210;-93
2022/07/23 14:00:46;;;;;;;6.27;1.30;;;14.60;99.90;;;;;;5039051;28;20213;-94
2022/07/23 14:03:24;;;;;;;5.57;1.63;;;14.60;99.90;;;;;;5040069;28;20208;-93
2022/07/23 14:05:57;;;;;;;3.03;1.13;;;14.70;99.90;;;;;;5035121;28;20255;-93
2022/07/23 14:08:29;;;;;;;6.03;1.30;;;14.70;99.90;;;;;;5020899;28;20224;-94
2022/07/23 14:11:01;;;;;;;3.30;1.23;;;14.60;99.90;;;;;;5020320;28;20210;-94
2022/07/23 14:13:37;;;;;;;4.60;1.80;;;14.70;99.90;;;;;;5019483;28;20223;-94
2022/07/23 14:16:10;;;;;;;5.20;1.33;;;14.70;99.90;;;;;;5019412;28;20216;-94
2022/07/23 14:18:45;;;;;;;5.03;1.10;;;14.70;99.90;;;;;;5020056;28;20226;-93
2022/07/23 14:21:18;;;;;;;4.90;1.47;;;14.70;99.90;;;;;;5019559;28;20209;-94
2022/07/23 14:23:48;;;;;;;3.07;1.37;;;14.80;99.90;;;;;;5019659;28;20667;-93
2022/07/23 14:26:21;;;;;;;5.77;1.30;;;14.80;99.90;;;;;;5019848;28;20328;-94
2022/07/23 14:28:52;;;;;;;8.63;1.70;;;14.80;99.90;;;;;;5019647;28;20218;-94
2022/07/23 14:31:23;;;;;;;4.27;1.60;;;14.80;99.90;;;;;;5019497;28;20205;-93
2022/07/23 14:34:04;;;;;;;4.47;1.53;;;14.90;99.90;;;;;;5019793;28;20297;-93
2022/07/23 14:36:37;;;;;;;3.43;0.90;;;14.90;99.90;;;;;;5019703;28;20217;-94
2022/07/23 14:39:09;;;;;;;3.53;1.37;;;14.90;99.90;;;;;;5020117;28;20206;-93